createdAt,value
2023-08-02T00:02:16.665Z,1.90
2023-08-02T00:04:42.727Z,2.30
2023-08-02T00:07:08.941Z,2.15
2023-08-02T00:09:34.814Z,2.28
2023-08-02T00:12:00.607Z,2.67
2023-08-02T00:14:26.782Z,2.15
2023-08-02T00:16:52.864Z,2.28
2023-08-02T00:19:18.772Z,2.50
2023-08-02T00:21:44.878Z,2.45
2023-08-02T00:24:11.031Z,3.17
2023-08-02T00:26:37.846Z,2.70
2023-08-02T00:29:05.219Z,2.35
2023-08-02T00:31:31.049Z,2.47
2023-08-02T00:33:56.885Z,2.60
2023-08-02T00:36:22.730Z,2.30
2023-08-02T00:38:48.638Z,4.05
2023-08-02T00:42:01.030Z,2.60
2023-08-02T00:44:26.852Z,2.58
2023-08-02T00:46:53.541Z,2.80
2023-08-02T00:49:19.491Z,2.53
2023-08-02T00:51:45.761Z,2.88
2023-08-02T00:54:11.566Z,3.00
2023-08-02T00:56:39.712Z,3.67
2023-08-02T00:59:05.935Z,3.08
2023-08-02T01:01:31.859Z,3.10
2023-08-02T01:03:58.089Z,3.30
2023-08-02T01:06:26.990Z,3.13
2023-08-02T01:11:34.057Z,3.22
2023-08-02T01:14:05.210Z,3.40
2023-08-02T01:16:32.714Z,3.88
2023-08-02T01:19:02.194Z,3.80
2023-08-02T01:21:28.476Z,3.80
2023-08-02T01:23:54.293Z,4.05
2023-08-02T01:26:20.948Z,3.88
2023-08-02T01:28:52.757Z,4.00
2023-08-02T01:31:21.684Z,3.25
2023-08-02T01:33:52.720Z,3.20
2023-08-02T01:36:18.773Z,3.60
2023-08-02T01:38:44.648Z,3.58
2023-08-02T01:41:10.444Z,4.28
2023-08-02T01:43:36.450Z,3.92
2023-08-02T01:46:02.374Z,3.90
2023-08-02T01:48:28.282Z,3.58
2023-08-02T01:50:54.075Z,3.47
2023-08-02T01:53:19.915Z,3.72
2023-08-02T01:55:45.770Z,4.13
2023-08-02T01:58:11.547Z,3.17
2023-08-02T02:00:37.373Z,3.92
2023-08-02T02:03:03.354Z,3.35
2023-08-02T02:05:29.210Z,3.13
2023-08-02T02:07:55.066Z,3.03
2023-08-02T02:10:20.844Z,3.38
2023-08-02T02:12:46.713Z,3.35
2023-08-02T02:15:12.571Z,3.10
2023-08-02T02:17:40.192Z,3.10
2023-08-02T02:20:06.878Z,3.47
2023-08-02T02:22:32.807Z,3.58
2023-08-02T02:24:58.618Z,3.15
2023-08-02T02:27:24.492Z,3.10
2023-08-02T02:29:50.282Z,3.40
2023-08-02T02:32:16.062Z,3.63
2023-08-02T02:34:41.856Z,3.42
2023-08-02T02:37:07.674Z,3.40
2023-08-02T02:39:33.480Z,2.80
2023-08-02T02:41:59.300Z,2.67
2023-08-02T02:44:42.405Z,3.75
2023-08-02T02:47:09.747Z,3.45
2023-08-02T02:49:35.565Z,3.45
2023-08-02T02:52:01.396Z,3.00
2023-08-02T02:54:27.228Z,3.15
2023-08-02T02:56:53.006Z,3.17
2023-08-02T02:59:18.865Z,3.85
2023-08-02T03:01:44.748Z,3.13
2023-08-02T03:04:10.540Z,3.00
2023-08-02T03:06:36.371Z,2.58
2023-08-02T03:09:02.749Z,2.97
2023-08-02T03:11:28.579Z,2.70
2023-08-02T03:13:54.413Z,2.92
2023-08-02T03:16:20.272Z,2.38
2023-08-02T03:18:46.121Z,2.72
2023-08-02T03:21:11.939Z,2.22
2023-08-02T03:23:37.793Z,2.22
2023-08-02T03:26:03.566Z,2.50
2023-08-02T03:28:29.400Z,2.83
2023-08-02T03:30:55.362Z,2.50
2023-08-02T03:33:21.235Z,2.30
2023-08-02T03:35:47.058Z,2.30
2023-08-02T03:38:12.887Z,2.47
2023-08-02T03:40:38.846Z,2.92
2023-08-02T03:43:04.670Z,2.15
2023-08-02T03:45:30.743Z,2.38
2023-08-02T03:47:56.582Z,2.38
2023-08-02T03:50:22.453Z,2.40
2023-08-02T03:52:49.136Z,2.20
2023-08-02T03:55:14.991Z,2.47
2023-08-02T03:57:40.855Z,1.92
2023-08-02T04:00:07.409Z,2.33
2023-08-02T04:02:33.270Z,2.13
2023-08-02T04:04:59.078Z,2.45
2023-08-02T04:07:24.942Z,2.17
2023-08-02T04:09:50.794Z,2.90
2023-08-02T04:12:20.048Z,2.53
2023-08-02T04:14:46.575Z,2.60
2023-08-02T04:17:12.383Z,2.22
2023-08-02T04:19:38.194Z,2.40
2023-08-02T04:22:04.021Z,2.40
2023-08-02T04:24:30.942Z,2.42
2023-08-02T04:26:56.789Z,2.20
2023-08-02T04:29:22.580Z,2.45
2023-08-02T04:31:48.506Z,2.22
2023-08-02T04:34:14.457Z,2.00
2023-08-02T04:36:40.708Z,2.10
2023-08-02T04:39:07.604Z,1.95
2023-08-02T04:41:33.936Z,2.20
2023-08-02T04:43:59.716Z,2.45
2023-08-02T04:46:27.720Z,2.22
2023-08-02T04:48:53.689Z,2.03
2023-08-02T04:51:19.842Z,2.40
2023-08-02T04:53:47.991Z,2.35
2023-08-02T04:56:14.772Z,2.72
2023-08-02T04:58:41.359Z,2.50
2023-08-02T05:01:07.581Z,2.50
2023-08-02T05:03:34.850Z,2.45
2023-08-02T05:06:05.342Z,2.47
2023-08-02T05:08:33.179Z,2.47
2023-08-02T05:10:59.058Z,2.72
2023-08-02T05:13:25.624Z,2.30
2023-08-02T05:15:52.642Z,2.33
2023-08-02T05:18:18.488Z,2.40
2023-08-02T05:20:44.363Z,2.47
2023-08-02T05:23:10.159Z,2.40
2023-08-02T05:25:36.314Z,2.50
2023-08-02T05:28:02.769Z,2.08
2023-08-02T05:30:29.902Z,2.25
2023-08-02T05:32:56.340Z,1.90
2023-08-02T05:35:23.730Z,2.00
2023-08-02T05:37:49.751Z,2.00
2023-08-02T05:40:15.729Z,1.85
2023-08-02T05:42:41.581Z,2.40
2023-08-02T05:45:07.869Z,1.90
2023-08-02T05:47:33.986Z,1.88
2023-08-02T05:49:59.853Z,2.17
2023-08-02T05:52:25.697Z,2.05
2023-08-02T05:54:51.538Z,1.95
2023-08-02T05:58:22.124Z,2.00
2023-08-02T06:00:47.936Z,2.15
2023-08-02T06:03:13.871Z,1.90
2023-08-02T06:05:39.826Z,2.08
2023-08-02T06:08:05.626Z,2.15
2023-08-02T06:10:31.475Z,2.90
2023-08-02T06:12:58.101Z,2.42
2023-08-02T06:15:24.143Z,2.25
2023-08-02T06:17:51.487Z,2.25
2023-08-02T06:20:17.361Z,2.35
2023-08-02T06:22:43.174Z,2.38
2023-08-02T06:25:09.554Z,2.35
2023-08-02T06:27:35.385Z,2.30
2023-08-02T06:30:01.248Z,2.95
2023-08-02T06:32:27.129Z,2.50
2023-08-02T06:34:53.036Z,2.50
2023-08-02T06:37:18.876Z,2.75
2023-08-02T06:39:44.675Z,2.45
2023-08-02T06:42:10.514Z,2.67
2023-08-02T06:44:36.436Z,2.65
2023-08-02T06:47:02.460Z,2.25
2023-08-02T06:49:28.270Z,2.30
2023-08-02T06:51:54.042Z,2.50
2023-08-02T06:54:19.860Z,2.63
2023-08-02T06:56:45.657Z,2.58
2023-08-02T06:59:11.484Z,2.70
2023-08-02T07:01:37.330Z,2.50
2023-08-02T07:04:03.167Z,2.25
2023-08-02T07:06:29.088Z,2.08
2023-08-02T07:08:56.065Z,2.20
2023-08-02T07:11:34.456Z,2.45
2023-08-02T07:14:02.200Z,2.28
2023-08-02T07:16:28.015Z,2.20
2023-08-02T07:18:54.887Z,2.10
2023-08-02T07:21:20.739Z,2.10
2023-08-02T07:23:46.572Z,2.20
2023-08-02T07:26:12.382Z,2.03
2023-08-02T07:28:38.242Z,1.80
2023-08-02T07:31:12.091Z,2.00
2023-08-02T07:33:38.291Z,1.95
2023-08-02T07:36:05.082Z,1.75
2023-08-02T07:38:31.204Z,1.70
2023-08-02T07:40:57.043Z,1.65
2023-08-02T07:43:22.964Z,1.50
2023-08-02T07:45:48.931Z,1.60
2023-08-02T07:48:14.813Z,1.75
2023-08-02T07:50:40.796Z,1.40
2023-08-02T07:53:07.434Z,1.88
2023-08-02T07:55:33.295Z,1.65
2023-08-02T07:57:59.125Z,1.42
2023-08-02T08:00:25.803Z,1.50
2023-08-02T08:02:51.946Z,1.63
2023-08-02T08:05:17.812Z,1.50
2023-08-02T08:07:43.685Z,1.77
2023-08-02T08:10:09.576Z,1.65
2023-08-02T08:12:38.730Z,1.70
2023-08-02T08:15:06.072Z,1.80
2023-08-02T08:17:31.929Z,1.50
2023-08-02T08:19:57.920Z,1.40
2023-08-02T08:22:28.927Z,1.45
2023-08-02T08:24:55.357Z,1.75
2023-08-02T08:27:21.246Z,1.77
2023-08-02T08:29:47.044Z,1.45
2023-08-02T08:32:12.921Z,2.00
2023-08-02T08:34:38.751Z,1.70
2023-08-02T08:37:04.652Z,2.53
2023-08-02T08:39:30.490Z,1.52
2023-08-02T08:41:59.210Z,1.52
2023-08-02T08:46:52.585Z,2.33
2023-08-02T08:49:18.494Z,1.90
2023-08-02T08:51:49.804Z,1.40
2023-08-02T08:54:18.780Z,1.48
2023-08-02T08:56:44.618Z,2.25
2023-08-02T08:59:11.444Z,1.90
2023-08-02T09:01:39.122Z,1.60
2023-08-02T09:04:05.216Z,1.90
2023-08-02T09:06:31.767Z,2.33
2023-08-02T09:08:57.557Z,1.50
2023-08-02T09:11:24.108Z,1.63
2023-08-02T09:14:08.309Z,1.60
2023-08-02T09:16:36.122Z,1.70
2023-08-02T09:19:02.229Z,1.90
2023-08-02T09:21:28.115Z,2.83
2023-08-02T09:23:58.831Z,1.60
2023-08-02T09:26:24.819Z,1.58
2023-08-02T09:29:05.411Z,1.90
2023-08-02T09:31:34.045Z,1.63
2023-08-02T09:36:29.839Z,1.80
2023-08-02T09:38:56.589Z,1.63
2023-08-02T09:43:55.226Z,1.30
2023-08-02T09:46:31.321Z,1.40
2023-08-02T09:48:57.821Z,1.40
2023-08-02T09:51:44.150Z,1.63
2023-08-02T09:54:12.873Z,1.80
2023-08-02T09:56:40.226Z,1.50
2023-08-02T09:59:07.629Z,1.38
2023-08-02T10:01:35.020Z,1.67
2023-08-02T10:04:06.697Z,1.83
2023-08-02T10:06:38.951Z,1.50
2023-08-02T10:09:08.476Z,1.50
2023-08-02T10:11:56.888Z,1.73
2023-08-02T10:14:23.498Z,1.40
2023-08-02T10:16:51.755Z,1.27
2023-08-02T10:19:18.072Z,1.70
2023-08-02T10:21:44.518Z,1.38
2023-08-02T10:24:13.082Z,1.50
2023-08-02T10:26:39.962Z,1.65
2023-08-02T10:29:07.574Z,1.73
2023-08-02T10:31:34.237Z,1.45
2023-08-02T10:34:00.114Z,1.48
2023-08-02T10:36:25.937Z,1.20
2023-08-02T10:38:55.550Z,1.20
2023-08-02T10:41:22.949Z,1.33
2023-08-02T10:44:09.457Z,1.50
2023-08-02T10:46:35.414Z,1.33
2023-08-02T10:49:10.463Z,1.33
2023-08-02T10:51:41.542Z,1.30
2023-08-02T10:54:19.322Z,1.67
2023-08-02T10:57:05.250Z,1.25
2023-08-02T10:59:31.026Z,1.10
2023-08-02T11:02:10.217Z,1.15
2023-08-02T11:04:40.754Z,1.30
2023-08-02T11:07:18.662Z,1.40
2023-08-02T11:09:45.873Z,1.27
2023-08-02T11:12:12.696Z,1.50
2023-08-02T11:14:38.996Z,1.23
2023-08-02T11:17:13.379Z,1.30
2023-08-02T11:22:38.513Z,1.88
2023-08-02T11:25:06.945Z,1.30
2023-08-02T11:30:07.173Z,1.30
2023-08-02T11:32:34.285Z,1.40
2023-08-02T11:35:01.106Z,1.20
2023-08-02T11:37:27.437Z,1.20
2023-08-02T11:42:24.533Z,1.35
2023-08-02T11:45:04.285Z,1.48
2023-08-02T11:47:37.100Z,1.45
2023-08-02T11:50:03.548Z,1.77
2023-08-02T11:52:31.750Z,1.40
2023-08-02T11:54:59.879Z,1.17
2023-08-02T11:57:26.742Z,1.10
2023-08-02T11:59:56.690Z,1.13
2023-08-02T12:02:30.140Z,1.27
2023-08-02T12:04:57.053Z,1.15
2023-08-02T12:07:30.702Z,1.05
2023-08-02T12:09:56.961Z,1.40
2023-08-02T12:12:29.488Z,1.20
2023-08-02T12:14:56.000Z,1.25
2023-08-02T12:17:23.371Z,1.10
2023-08-02T12:19:50.262Z,1.00
2023-08-02T12:22:17.868Z,1.13
2023-08-02T12:24:43.705Z,1.10
2023-08-02T12:27:13.824Z,1.05
2023-08-02T12:29:39.666Z,1.40
2023-08-02T12:32:05.855Z,1.13
2023-08-02T12:34:31.712Z,1.02
2023-08-02T12:36:59.962Z,1.20
2023-08-02T12:39:26.341Z,1.40
2023-08-02T12:41:52.197Z,1.20
2023-08-02T12:44:18.030Z,1.40
2023-08-02T12:46:44.158Z,1.20
2023-08-02T12:49:10.193Z,1.20
2023-08-02T12:51:39.127Z,1.13
2023-08-02T12:54:06.125Z,1.42
2023-08-02T12:56:33.588Z,1.30
2023-08-02T12:58:59.532Z,1.00
2023-08-02T13:01:25.398Z,1.50
2023-08-02T13:03:51.367Z,1.40
2023-08-02T13:06:17.371Z,2.50
2023-08-02T13:08:43.245Z,1.40
2023-08-02T13:11:09.112Z,1.35
2023-08-02T13:13:34.907Z,1.50
2023-08-02T13:16:00.791Z,1.05
2023-08-02T13:18:29.134Z,1.35
2023-08-02T13:20:56.244Z,1.30
2023-08-02T13:23:22.073Z,1.30
2023-08-02T13:25:47.934Z,1.30
2023-08-02T13:28:14.582Z,1.20
2023-08-02T13:30:40.433Z,1.38
2023-08-02T13:33:06.373Z,1.30
2023-08-02T13:35:32.205Z,1.13
2023-08-02T13:37:58.503Z,1.30
2023-08-02T13:40:24.629Z,1.35
2023-08-02T13:42:51.035Z,1.33
2023-08-02T13:45:16.899Z,1.50
2023-08-02T13:47:42.750Z,1.30
2023-08-02T13:50:09.105Z,1.30
2023-08-02T13:52:35.166Z,1.42
2023-08-02T13:55:01.694Z,1.40
2023-08-02T13:57:27.857Z,1.38
2023-08-02T13:59:53.701Z,1.30
2023-08-02T14:02:19.738Z,1.30
2023-08-02T14:04:46.674Z,1.10
2023-08-02T14:07:12.958Z,1.50
2023-08-02T14:09:41.270Z,1.48
2023-08-02T14:12:09.639Z,1.13
2023-08-02T14:14:36.186Z,1.30
2023-08-02T14:17:02.319Z,1.20
2023-08-02T14:19:28.145Z,1.30
2023-08-02T14:21:55.386Z,1.08
2023-08-02T14:24:21.457Z,1.20
2023-08-02T14:26:47.284Z,1.30
2023-08-02T14:29:13.118Z,1.20
2023-08-02T14:31:38.999Z,1.25
2023-08-02T14:34:04.826Z,1.30
2023-08-02T14:36:30.678Z,1.42
2023-08-02T14:38:56.558Z,1.40
2023-08-02T14:41:22.412Z,1.30
2023-08-02T14:43:48.264Z,1.20
2023-08-02T14:46:14.213Z,1.30
2023-08-02T14:48:40.002Z,1.58
2023-08-02T14:51:05.808Z,1.50
2023-08-02T14:53:31.641Z,1.60
2023-08-02T14:55:57.535Z,1.38
2023-08-02T14:58:24.098Z,1.40
2023-08-02T15:00:50.457Z,1.27
2023-08-02T15:03:16.485Z,1.17
2023-08-02T15:05:42.610Z,1.10
2023-08-02T15:08:08.535Z,1.23
2023-08-02T15:10:34.405Z,1.20
2023-08-02T15:13:00.223Z,1.30
2023-08-02T15:15:26.058Z,1.10
2023-08-02T15:17:51.925Z,1.00
2023-08-02T15:20:17.947Z,1.13
2023-08-02T15:22:43.783Z,1.50
2023-08-02T15:25:10.040Z,1.45
2023-08-02T15:27:35.938Z,1.05
2023-08-02T15:30:01.721Z,1.33
2023-08-02T15:32:27.589Z,1.25
2023-08-02T15:34:53.433Z,1.13
2023-08-02T15:37:19.583Z,1.38
2023-08-02T15:39:45.414Z,1.33
2023-08-02T15:42:11.988Z,1.33
2023-08-02T15:44:37.768Z,1.15
2023-08-02T15:47:03.835Z,1.30
2023-08-02T15:49:29.628Z,1.50
2023-08-02T15:51:55.416Z,1.15
2023-08-02T15:54:21.224Z,1.42
2023-08-02T15:56:47.364Z,1.20
2023-08-02T15:59:13.326Z,1.40
2023-08-02T16:01:39.124Z,1.65
2023-08-02T16:04:04.936Z,1.52
2023-08-02T16:06:30.827Z,1.55
2023-08-02T16:08:56.708Z,1.40
2023-08-02T16:11:23.193Z,1.40
2023-08-02T16:13:49.141Z,1.20
2023-08-02T16:16:15.031Z,1.35
2023-08-02T16:18:40.846Z,1.20
2023-08-02T16:21:06.704Z,1.38
2023-08-02T16:23:32.874Z,1.45
2023-08-02T16:25:58.725Z,1.50
2023-08-02T16:28:24.589Z,1.30
2023-08-02T16:30:50.562Z,1.40
2023-08-02T16:33:16.410Z,1.50
2023-08-02T16:35:45.232Z,1.42
2023-08-02T16:38:14.778Z,1.20
2023-08-02T16:40:41.634Z,1.48
2023-08-02T16:43:07.433Z,1.23
2023-08-02T16:45:33.241Z,1.60
2023-08-02T16:47:59.093Z,1.42
2023-08-02T16:50:26.787Z,1.30
2023-08-02T16:52:52.694Z,1.45
2023-08-02T16:55:18.519Z,1.30
2023-08-02T16:57:44.303Z,1.50
2023-08-02T17:00:11.208Z,1.50
2023-08-02T17:02:37.009Z,1.55
2023-08-02T17:05:03.197Z,1.27
2023-08-02T17:07:28.990Z,1.55
2023-08-02T17:09:54.869Z,1.23
2023-08-02T17:12:20.811Z,1.58
2023-08-02T17:14:46.631Z,1.65
2023-08-02T17:17:12.817Z,1.20
2023-08-02T17:19:38.826Z,1.30
2023-08-02T17:22:05.110Z,1.30
2023-08-02T17:24:31.116Z,1.50
2023-08-02T17:26:57.051Z,1.40
2023-08-02T17:29:22.923Z,1.23
2023-08-02T17:31:49.324Z,1.70
2023-08-02T17:34:15.222Z,1.52
2023-08-02T17:36:41.016Z,1.63
2023-08-02T17:39:06.801Z,1.30
2023-08-02T17:41:32.925Z,1.75
2023-08-02T17:43:58.737Z,1.70
2023-08-02T17:46:25.675Z,1.80
2023-08-02T17:48:52.269Z,1.88
2023-08-02T17:51:18.377Z,2.08
2023-08-02T17:53:44.581Z,1.80
2023-08-02T17:56:12.384Z,1.83
2023-08-02T17:58:40.009Z,1.80
2023-08-02T18:01:10.716Z,1.77
2023-08-02T18:03:38.270Z,1.85
2023-08-02T18:06:05.701Z,2.10
2023-08-02T18:08:31.527Z,1.83
2023-08-02T18:10:57.398Z,1.65
2023-08-02T18:13:23.245Z,1.80
2023-08-02T18:15:49.046Z,1.65
2023-08-02T18:18:14.952Z,2.25
2023-08-02T18:20:40.819Z,1.70
2023-08-02T18:23:06.733Z,1.80
2023-08-02T18:25:36.701Z,1.77
2023-08-02T18:28:02.680Z,1.83
2023-08-02T18:30:28.539Z,1.42
2023-08-02T18:32:56.643Z,1.63
2023-08-02T18:35:27.073Z,1.92
2023-08-02T18:37:53.748Z,1.73
2023-08-02T18:40:19.738Z,1.88
2023-08-02T18:42:48.920Z,1.60
2023-08-02T18:45:15.925Z,1.83
2023-08-02T18:47:41.762Z,2.70
2023-08-02T18:50:08.242Z,1.90
2023-08-02T18:52:34.672Z,1.92
2023-08-02T18:55:02.013Z,1.80
2023-08-02T18:57:28.567Z,1.90
2023-08-02T18:59:54.621Z,1.98
2023-08-02T19:02:20.603Z,1.88
2023-08-02T19:04:46.485Z,1.83
2023-08-02T19:07:13.811Z,2.00
2023-08-02T19:09:40.205Z,1.98
2023-08-02T19:12:20.451Z,2.20
2023-08-02T19:14:47.422Z,2.13
2023-08-02T19:17:14.384Z,1.92
2023-08-02T19:19:41.470Z,1.95
2023-08-02T19:22:11.880Z,1.92
2023-08-02T19:24:38.172Z,2.22
2023-08-02T19:27:05.450Z,2.22
2023-08-02T19:29:31.721Z,2.00
2023-08-02T19:31:59.137Z,1.60
2023-08-02T19:34:32.705Z,2.00
2023-08-02T19:37:00.350Z,2.00
2023-08-02T19:39:40.970Z,2.63
2023-08-02T19:42:12.655Z,2.45
2023-08-02T19:44:39.082Z,2.20
2023-08-02T19:47:05.113Z,2.45
2023-08-02T19:49:32.833Z,2.10
2023-08-02T19:51:58.637Z,2.33
2023-08-02T19:54:25.002Z,2.20
2023-08-02T19:56:56.049Z,1.90
2023-08-02T19:59:21.895Z,2.40
2023-08-02T20:01:54.873Z,2.10
2023-08-02T20:04:20.943Z,2.00
2023-08-02T20:06:46.942Z,2.30
2023-08-02T20:09:13.634Z,2.47
2023-08-02T20:11:39.953Z,2.60
2023-08-02T20:14:18.688Z,2.88
2023-08-02T20:16:44.722Z,2.10
2023-08-02T20:19:14.647Z,2.67
2023-08-02T20:21:47.115Z,2.67
2023-08-02T20:24:17.230Z,3.03
2023-08-02T20:26:50.228Z,3.65
2023-08-02T20:29:23.979Z,3.35
2023-08-02T20:31:52.994Z,3.15
2023-08-02T20:34:20.491Z,2.67
2023-08-02T20:36:47.280Z,2.33
2023-08-02T20:39:16.960Z,2.60
2023-08-02T20:41:47.719Z,3.00
2023-08-02T20:44:22.954Z,2.58
2023-08-02T20:46:51.698Z,2.65
2023-08-02T20:49:18.621Z,2.70
2023-08-02T20:51:46.408Z,2.60
2023-08-02T20:54:12.845Z,2.80
2023-08-02T20:56:39.876Z,2.50
2023-08-02T20:59:13.548Z,2.50
2023-08-02T21:01:43.760Z,2.63
2023-08-02T21:04:11.599Z,2.17
2023-08-02T21:06:38.413Z,2.22
2023-08-02T21:09:04.579Z,2.40
2023-08-02T21:11:30.529Z,2.80
2023-08-02T21:13:57.337Z,2.42
2023-08-02T21:16:23.328Z,2.60
2023-08-02T21:18:49.395Z,2.92
2023-08-02T21:21:17.189Z,3.10
2023-08-02T21:23:43.430Z,2.22
2023-08-02T21:26:14.951Z,2.83
2023-08-02T21:28:40.827Z,2.90
2023-08-02T21:31:13.082Z,3.20
2023-08-02T21:33:38.984Z,2.28
2023-08-02T21:36:04.882Z,3.00
2023-08-02T21:38:33.281Z,2.50
2023-08-02T21:41:03.143Z,2.80
2023-08-02T21:43:34.361Z,2.58
2023-08-02T21:46:05.979Z,2.58
2023-08-02T21:48:42.667Z,2.47
2023-08-02T21:51:09.376Z,2.85
2023-08-02T21:53:35.768Z,2.47
2023-08-02T21:56:01.698Z,2.72
2023-08-02T21:58:30.077Z,2.42
2023-08-02T22:00:56.878Z,2.65
2023-08-02T22:03:22.974Z,2.55
2023-08-02T22:05:49.166Z,2.50
2023-08-02T22:08:26.727Z,2.30
2023-08-02T22:10:52.525Z,2.38
2023-08-02T22:13:18.340Z,2.50
2023-08-02T22:15:45.440Z,2.22
2023-08-02T22:18:14.265Z,2.35
2023-08-02T22:20:40.740Z,2.65
2023-08-02T22:23:07.107Z,2.47
2023-08-02T22:25:33.189Z,2.50
2023-08-02T22:27:59.019Z,2.55
2023-08-02T22:30:24.854Z,2.55
2023-08-02T22:32:50.791Z,2.50
2023-08-02T22:35:16.635Z,2.33
2023-08-02T22:37:42.483Z,2.38
2023-08-02T22:40:08.613Z,2.42
2023-08-02T22:42:34.462Z,2.40
2023-08-02T22:45:00.317Z,2.40
2023-08-02T22:47:27.955Z,2.50
2023-08-02T22:54:51.187Z,2.40
2023-08-02T22:59:47.806Z,1.90
2023-08-02T23:02:13.854Z,2.20
2023-08-02T23:04:40.891Z,2.20
2023-08-02T23:07:20.904Z,2.20
2023-08-02T23:09:46.806Z,2.17
2023-08-02T23:12:17.617Z,2.05
2023-08-02T23:14:46.124Z,1.90
2023-08-02T23:17:13.682Z,1.90
2023-08-02T23:19:42.085Z,1.90
2023-08-02T23:22:12.682Z,1.83
2023-08-02T23:24:42.093Z,1.60
2023-08-02T23:27:22.776Z,1.33
2023-08-02T23:29:50.229Z,1.60
2023-08-02T23:32:16.020Z,1.42
2023-08-02T23:34:41.850Z,1.38
2023-08-02T23:37:07.706Z,1.17
2023-08-02T23:39:33.568Z,1.35
2023-08-02T23:41:59.366Z,1.50
2023-08-02T23:44:25.024Z,1.40
2023-08-02T23:46:50.826Z,1.55
2023-08-02T23:49:16.523Z,1.20
2023-08-02T23:51:42.587Z,1.67
2023-08-02T23:54:10.597Z,1.23
2023-08-02T23:56:36.878Z,1.48
2023-08-02T23:59:02.790Z,1.23
